sensor_id;sensor_type;location;lat;lon;timestamp;P1;durP1;ratioP1;P2;durP2;ratioP2
78296;SDS011;67555;47.660;19.622;2024-01-11T00:00:16;12.45;;;6.90;;
78296;SDS011;67555;47.660;19.622;2024-01-11T00:02:44;10.25;;;6.28;;
78296;SDS011;67555;47.660;19.622;2024-01-11T00:05:10;11.60;;;5.05;;
78296;SDS011;67555;47.660;19.622;2024-01-11T00:07:35;5.75;;;3.88;;
78296;SDS011;67555;47.660;19.622;2024-01-11T00:10:02;23.88;;;9.85;;
78296;SDS011;67555;47.660;19.622;2024-01-11T00:12:28;20.38;;;8.25;;
78296;SDS011;67555;47.660;19.622;2024-01-11T00:14:54;10.10;;;7.75;;
78296;SDS011;67555;47.660;19.622;2024-01-11T00:17:20;13.88;;;8.15;;
78296;SDS011;67555;47.660;19.622;2024-01-11T00:19:46;18.58;;;9.35;;
78296;SDS011;67555;47.660;19.622;2024-01-11T00:22:13;12.65;;;7.03;;
78296;SDS011;67555;47.660;19.622;2024-01-11T00:24:39;16.48;;;10.13;;
78296;SDS011;67555;47.660;19.622;2024-01-11T00:27:06;15.48;;;8.57;;
78296;SDS011;67555;47.660;19.622;2024-01-11T00:29:32;18.95;;;6.47;;
78296;SDS011;67555;47.660;19.622;2024-01-11T00:31:57;11.30;;;6.15;;
78296;SDS011;67555;47.660;19.622;2024-01-11T00:34:23;16.52;;;5.75;;
78296;SDS011;67555;47.660;19.622;2024-01-11T00:36:49;12.88;;;5.35;;
78296;SDS011;67555;47.660;19.622;2024-01-11T00:39:15;12.23;;;7.35;;
78296;SDS011;67555;47.660;19.622;2024-01-11T00:41:41;10.27;;;8.88;;
78296;SDS011;67555;47.660;19.622;2024-01-11T00:44:06;12.48;;;5.57;;
78296;SDS011;67555;47.660;19.622;2024-01-11T00:46:32;9.38;;;6.90;;
78296;SDS011;67555;47.660;19.622;2024-01-11T00:48:59;9.80;;;8.23;;
78296;SDS011;67555;47.660;19.622;2024-01-11T00:51:26;11.48;;;6.78;;
78296;SDS011;67555;47.660;19.622;2024-01-11T00:53:51;10.35;;;6.38;;
78296;SDS011;67555;47.660;19.622;2024-01-11T00:56:17;17.67;;;9.50;;
78296;SDS011;67555;47.660;19.622;2024-01-11T00:58:44;7.03;;;5.65;;
78296;SDS011;67555;47.660;19.622;2024-01-11T01:01:10;12.05;;;5.00;;
78296;SDS011;67555;47.660;19.622;2024-01-11T01:03:38;13.48;;;8.05;;
78296;SDS011;67555;47.660;19.622;2024-01-11T01:06:04;13.57;;;6.30;;
78296;SDS011;67555;47.660;19.622;2024-01-11T01:08:32;10.82;;;6.13;;
78296;SDS011;67555;47.660;19.622;2024-01-11T01:11:01;9.77;;;6.03;;
78296;SDS011;67555;47.660;19.622;2024-01-11T01:13:27;9.75;;;5.38;;
78296;SDS011;67555;47.660;19.622;2024-01-11T01:15:52;10.35;;;6.65;;
78296;SDS011;67555;47.660;19.622;2024-01-11T01:18:18;8.50;;;7.30;;
78296;SDS011;67555;47.660;19.622;2024-01-11T01:20:44;8.52;;;6.07;;
78296;SDS011;67555;47.660;19.622;2024-01-11T01:23:10;7.30;;;5.70;;
78296;SDS011;67555;47.660;19.622;2024-01-11T01:25:35;10.45;;;6.97;;
78296;SDS011;67555;47.660;19.622;2024-01-11T01:28:01;5.28;;;4.80;;
78296;SDS011;67555;47.660;19.622;2024-01-11T01:30:27;18.42;;;5.95;;
78296;SDS011;67555;47.660;19.622;2024-01-11T01:32:53;12.88;;;8.48;;
78296;SDS011;67555;47.660;19.622;2024-01-11T01:35:19;13.13;;;7.80;;
78296;SDS011;67555;47.660;19.622;2024-01-11T01:37:44;12.77;;;6.78;;
78296;SDS011;67555;47.660;19.622;2024-01-11T01:40:11;12.20;;;7.93;;
78296;SDS011;67555;47.660;19.622;2024-01-11T01:42:43;13.88;;;6.50;;
78296;SDS011;67555;47.660;19.622;2024-01-11T01:45:10;21.38;;;7.65;;
78296;SDS011;67555;47.660;19.622;2024-01-11T01:47:37;13.15;;;7.38;;
78296;SDS011;67555;47.660;19.622;2024-01-11T01:50:05;13.23;;;7.20;;
78296;SDS011;67555;47.660;19.622;2024-01-11T01:52:32;5.63;;;4.82;;
78296;SDS011;67555;47.660;19.622;2024-01-11T01:55:01;8.98;;;5.93;;
78296;SDS011;67555;47.660;19.622;2024-01-11T01:57:28;12.75;;;6.28;;
78296;SDS011;67555;47.660;19.622;2024-01-11T01:59:55;8.35;;;5.72;;
78296;SDS011;67555;47.660;19.622;2024-01-11T02:02:22;7.18;;;4.10;;
78296;SDS011;67555;47.660;19.622;2024-01-11T02:04:48;10.35;;;4.05;;
78296;SDS011;67555;47.660;19.622;2024-01-11T02:07:14;11.73;;;6.43;;
78296;SDS011;67555;47.660;19.622;2024-01-11T02:09:40;11.13;;;6.40;;
78296;SDS011;67555;47.660;19.622;2024-01-11T02:12:07;11.27;;;5.40;;
78296;SDS011;67555;47.660;19.622;2024-01-11T02:14:37;10.68;;;5.88;;
78296;SDS011;67555;47.660;19.622;2024-01-11T02:17:02;8.15;;;5.63;;
78296;SDS011;67555;47.660;19.622;2024-01-11T02:19:28;9.88;;;6.28;;
78296;SDS011;67555;47.660;19.622;2024-01-11T02:21:54;8.48;;;4.57;;
78296;SDS011;67555;47.660;19.622;2024-01-11T02:24:21;10.07;;;6.28;;
78296;SDS011;67555;47.660;19.622;2024-01-11T02:27:00;12.07;;;6.28;;
78296;SDS011;67555;47.660;19.622;2024-01-11T02:29:28;12.95;;;6.80;;
78296;SDS011;67555;47.660;19.622;2024-01-11T02:31:55;9.52;;;6.10;;
78296;SDS011;67555;47.660;19.622;2024-01-11T02:34:22;11.43;;;5.43;;
78296;SDS011;67555;47.660;19.622;2024-01-11T02:36:52;13.02;;;6.15;;
78296;SDS011;67555;47.660;19.622;2024-01-11T02:39:19;11.10;;;7.57;;
78296;SDS011;67555;47.660;19.622;2024-01-11T02:41:45;7.38;;;4.90;;
78296;SDS011;67555;47.660;19.622;2024-01-11T02:44:11;11.25;;;5.07;;
78296;SDS011;67555;47.660;19.622;2024-01-11T02:46:37;6.95;;;5.47;;
78296;SDS011;67555;47.660;19.622;2024-01-11T02:49:03;9.55;;;6.85;;
78296;SDS011;67555;47.660;19.622;2024-01-11T02:51:28;7.00;;;5.32;;
78296;SDS011;67555;47.660;19.622;2024-01-11T02:53:54;7.50;;;5.38;;
78296;SDS011;67555;47.660;19.622;2024-01-11T02:56:20;17.92;;;7.63;;
78296;SDS011;67555;47.660;19.622;2024-01-11T02:58:45;5.68;;;4.82;;
78296;SDS011;67555;47.660;19.622;2024-01-11T03:01:11;15.40;;;7.40;;
78296;SDS011;67555;47.660;19.622;2024-01-11T03:03:39;14.68;;;6.70;;
78296;SDS011;67555;47.660;19.622;2024-01-11T03:06:04;9.82;;;6.65;;
78296;SDS011;67555;47.660;19.622;2024-01-11T03:08:31;13.88;;;6.20;;
78296;SDS011;67555;47.660;19.622;2024-01-11T03:10:56;6.57;;;4.82;;
78296;SDS011;67555;47.660;19.622;2024-01-11T03:13:23;6.45;;;5.00;;
78296;SDS011;67555;47.660;19.622;2024-01-11T03:15:49;10.02;;;6.57;;
78296;SDS011;67555;47.660;19.622;2024-01-11T03:18:15;10.90;;;5.35;;
78296;SDS011;67555;47.660;19.622;2024-01-11T03:20:40;8.27;;;5.80;;
78296;SDS011;67555;47.660;19.622;2024-01-11T03:25:55;10.82;;;5.35;;
78296;SDS011;67555;47.660;19.622;2024-01-11T03:28:30;8.48;;;6.30;;
78296;SDS011;67555;47.660;19.622;2024-01-11T03:30:56;10.30;;;4.30;;
78296;SDS011;67555;47.660;19.622;2024-01-11T03:33:22;8.25;;;4.97;;
78296;SDS011;67555;47.660;19.622;2024-01-11T03:35:48;8.32;;;3.33;;
78296;SDS011;67555;47.660;19.622;2024-01-11T03:38:14;5.82;;;4.72;;
78296;SDS011;67555;47.660;19.622;2024-01-11T03:40:40;7.70;;;6.22;;
78296;SDS011;67555;47.660;19.622;2024-01-11T03:45:56;4.63;;;4.25;;
78296;SDS011;67555;47.660;19.622;2024-01-11T03:48:31;16.00;;;5.30;;
78296;SDS011;67555;47.660;19.622;2024-01-11T03:51:00;4.05;;;3.65;;
78296;SDS011;67555;47.660;19.622;2024-01-11T03:53:26;10.48;;;4.60;;
78296;SDS011;67555;47.660;19.622;2024-01-11T03:55:53;7.82;;;4.57;;
78296;SDS011;67555;47.660;19.622;2024-01-11T03:58:19;6.60;;;4.38;;
78296;SDS011;67555;47.660;19.622;2024-01-11T04:00:44;4.40;;;3.97;;
78296;SDS011;67555;47.660;19.622;2024-01-11T04:03:11;9.65;;;3.33;;
78296;SDS011;67555;47.660;19.622;2024-01-11T04:05:37;6.97;;;4.45;;
78296;SDS011;67555;47.660;19.622;2024-01-11T04:08:04;10.23;;;3.88;;
78296;SDS011;67555;47.660;19.622;2024-01-11T04:10:35;6.30;;;3.20;;
78296;SDS011;67555;47.660;19.622;2024-01-11T04:13:02;8.95;;;2.63;;
78296;SDS011;67555;47.660;19.622;2024-01-11T04:15:28;8.80;;;3.50;;
78296;SDS011;67555;47.660;19.622;2024-01-11T04:17:53;5.93;;;3.92;;
78296;SDS011;67555;47.660;19.622;2024-01-11T04:20:19;3.50;;;2.97;;
78296;SDS011;67555;47.660;19.622;2024-01-11T04:22:45;4.32;;;2.50;;
78296;SDS011;67555;47.660;19.622;2024-01-11T04:25:10;12.60;;;5.40;;
78296;SDS011;67555;47.660;19.622;2024-01-11T04:27:36;8.18;;;4.70;;
78296;SDS011;67555;47.660;19.622;2024-01-11T04:30:02;8.60;;;4.32;;
78296;SDS011;67555;47.660;19.622;2024-01-11T04:32:28;7.50;;;4.40;;
78296;SDS011;67555;47.660;19.622;2024-01-11T04:34:53;7.22;;;4.22;;
78296;SDS011;67555;47.660;19.622;2024-01-11T04:37:19;6.03;;;3.20;;
78296;SDS011;67555;47.660;19.622;2024-01-11T04:39:45;6.25;;;3.75;;
78296;SDS011;67555;47.660;19.622;2024-01-11T04:42:10;7.07;;;5.43;;
78296;SDS011;67555;47.660;19.622;2024-01-11T04:44:36;10.80;;;4.45;;
78296;SDS011;67555;47.660;19.622;2024-01-11T04:47:02;5.78;;;4.03;;
78296;SDS011;67555;47.660;19.622;2024-01-11T04:49:28;9.38;;;4.25;;
78296;SDS011;67555;47.660;19.622;2024-01-11T04:51:55;11.60;;;6.45;;
78296;SDS011;67555;47.660;19.622;2024-01-11T04:54:21;12.88;;;4.80;;
78296;SDS011;67555;47.660;19.622;2024-01-11T04:56:46;4.10;;;3.45;;
78296;SDS011;67555;47.660;19.622;2024-01-11T04:59:13;6.40;;;5.80;;
78296;SDS011;67555;47.660;19.622;2024-01-11T05:01:39;12.32;;;4.85;;
78296;SDS011;67555;47.660;19.622;2024-01-11T05:04:06;6.43;;;5.30;;
78296;SDS011;67555;47.660;19.622;2024-01-11T05:06:32;8.35;;;6.53;;
78296;SDS011;67555;47.660;19.622;2024-01-11T05:08:57;14.00;;;6.38;;
78296;SDS011;67555;47.660;19.622;2024-01-11T05:11:23;6.47;;;5.30;;
78296;SDS011;67555;47.660;19.622;2024-01-11T05:13:50;10.52;;;6.57;;
78296;SDS011;67555;47.660;19.622;2024-01-11T05:16:20;6.00;;;4.80;;
78296;SDS011;67555;47.660;19.622;2024-01-11T05:18:50;6.20;;;3.63;;
78296;SDS011;67555;47.660;19.622;2024-01-11T05:21:17;15.65;;;7.65;;
78296;SDS011;67555;47.660;19.622;2024-01-11T05:23:43;20.38;;;10.05;;
78296;SDS011;67555;47.660;19.622;2024-01-11T05:26:09;14.50;;;5.03;;
78296;SDS011;67555;47.660;19.622;2024-01-11T05:28:36;10.73;;;8.13;;
78296;SDS011;67555;47.660;19.622;2024-01-11T05:31:04;13.25;;;8.68;;
78296;SDS011;67555;47.660;19.622;2024-01-11T05:33:34;10.07;;;6.75;;
78296;SDS011;67555;47.660;19.622;2024-01-11T05:36:00;24.05;;;15.60;;
78296;SDS011;67555;47.660;19.622;2024-01-11T05:38:29;14.15;;;11.85;;
78296;SDS011;67555;47.660;19.622;2024-01-11T05:40:55;18.85;;;8.57;;
78296;SDS011;67555;47.660;19.622;2024-01-11T05:43:21;15.80;;;9.27;;
78296;SDS011;67555;47.660;19.622;2024-01-11T05:45:48;11.60;;;6.53;;
78296;SDS011;67555;47.660;19.622;2024-01-11T05:48:14;23.38;;;10.32;;
78296;SDS011;67555;47.660;19.622;2024-01-11T05:50:41;22.25;;;10.55;;
78296;SDS011;67555;47.660;19.622;2024-01-11T05:53:07;21.80;;;11.52;;
78296;SDS011;67555;47.660;19.622;2024-01-11T05:55:33;17.80;;;8.27;;
78296;SDS011;67555;47.660;19.622;2024-01-11T05:57:59;10.90;;;8.82;;
78296;SDS011;67555;47.660;19.622;2024-01-11T06:00:25;19.08;;;8.68;;
78296;SDS011;67555;47.660;19.622;2024-01-11T06:02:51;18.45;;;7.93;;
78296;SDS011;67555;47.660;19.622;2024-01-11T06:05:17;11.25;;;6.05;;
78296;SDS011;67555;47.660;19.622;2024-01-11T06:07:43;20.80;;;9.00;;
78296;SDS011;67555;47.660;19.622;2024-01-11T06:10:08;8.88;;;4.93;;
78296;SDS011;67555;47.660;19.622;2024-01-11T06:12:34;16.15;;;8.38;;
78296;SDS011;67555;47.660;19.622;2024-01-11T06:15:00;10.82;;;7.28;;
78296;SDS011;67555;47.660;19.622;2024-01-11T06:17:27;13.10;;;5.95;;
78296;SDS011;67555;47.660;19.622;2024-01-11T06:19:52;15.90;;;7.55;;
78296;SDS011;67555;47.660;19.622;2024-01-11T06:22:19;12.05;;;6.80;;
78296;SDS011;67555;47.660;19.622;2024-01-11T06:24:44;13.95;;;6.05;;
78296;SDS011;67555;47.660;19.622;2024-01-11T06:27:10;10.60;;;6.28;;
78296;SDS011;67555;47.660;19.622;2024-01-11T06:29:36;11.93;;;6.40;;
78296;SDS011;67555;47.660;19.622;2024-01-11T06:32:01;18.85;;;8.05;;
78296;SDS011;67555;47.660;19.622;2024-01-11T06:34:27;14.43;;;7.05;;
78296;SDS011;67555;47.660;19.622;2024-01-11T06:36:54;14.65;;;7.38;;
78296;SDS011;67555;47.660;19.622;2024-01-11T06:39:20;10.50;;;6.75;;
78296;SDS011;67555;47.660;19.622;2024-01-11T06:41:46;18.30;;;6.45;;
78296;SDS011;67555;47.660;19.622;2024-01-11T06:44:12;11.27;;;8.05;;
78296;SDS011;67555;47.660;19.622;2024-01-11T06:46:38;9.25;;;6.22;;
78296;SDS011;67555;47.660;19.622;2024-01-11T06:49:07;20.83;;;10.07;;
78296;SDS011;67555;47.660;19.622;2024-01-11T06:51:34;36.42;;;15.73;;
78296;SDS011;67555;47.660;19.622;2024-01-11T06:54:00;53.70;;;23.48;;
78296;SDS011;67555;47.660;19.622;2024-01-11T06:56:26;38.58;;;18.13;;
78296;SDS011;67555;47.660;19.622;2024-01-11T06:58:52;28.98;;;19.48;;
78296;SDS011;67555;47.660;19.622;2024-01-11T07:01:19;34.78;;;13.48;;
78296;SDS011;67555;47.660;19.622;2024-01-11T07:03:45;27.52;;;10.70;;
78296;SDS011;67555;47.660;19.622;2024-01-11T07:06:11;18.67;;;13.23;;
78296;SDS011;67555;47.660;19.622;2024-01-11T07:08:37;26.77;;;11.50;;
78296;SDS011;67555;47.660;19.622;2024-01-11T07:11:03;17.48;;;10.95;;
78296;SDS011;67555;47.660;19.622;2024-01-11T07:13:29;12.27;;;7.90;;
78296;SDS011;67555;47.660;19.622;2024-01-11T07:15:56;30.27;;;15.90;;
78296;SDS011;67555;47.660;19.622;2024-01-11T07:18:23;34.42;;;15.98;;
78296;SDS011;67555;47.660;19.622;2024-01-11T07:20:51;31.27;;;18.63;;
78296;SDS011;67555;47.660;19.622;2024-01-11T07:23:17;18.75;;;11.63;;
78296;SDS011;67555;47.660;19.622;2024-01-11T07:25:43;18.25;;;10.55;;
78296;SDS011;67555;47.660;19.622;2024-01-11T07:28:09;16.00;;;10.32;;
78296;SDS011;67555;47.660;19.622;2024-01-11T07:30:34;23.73;;;13.40;;
78296;SDS011;67555;47.660;19.622;2024-01-11T07:33:00;27.00;;;13.65;;
78296;SDS011;67555;47.660;19.622;2024-01-11T07:35:26;21.35;;;10.82;;
78296;SDS011;67555;47.660;19.622;2024-01-11T07:37:52;24.63;;;12.65;;
78296;SDS011;67555;47.660;19.622;2024-01-11T07:40:18;31.80;;;11.93;;
78296;SDS011;67555;47.660;19.622;2024-01-11T07:42:44;29.27;;;15.82;;
78296;SDS011;67555;47.660;19.622;2024-01-11T07:45:11;21.15;;;12.32;;
78296;SDS011;67555;47.660;19.622;2024-01-11T07:47:37;19.27;;;10.80;;
78296;SDS011;67555;47.660;19.622;2024-01-11T07:50:03;19.40;;;8.88;;
78296;SDS011;67555;47.660;19.622;2024-01-11T07:52:31;13.50;;;8.20;;
78296;SDS011;67555;47.660;19.622;2024-01-11T07:54:57;16.10;;;7.65;;
78296;SDS011;67555;47.660;19.622;2024-01-11T07:57:31;18.20;;;8.13;;
78296;SDS011;67555;47.660;19.622;2024-01-11T07:59:57;13.50;;;7.75;;
78296;SDS011;67555;47.660;19.622;2024-01-11T08:02:24;26.23;;;11.57;;
78296;SDS011;67555;47.660;19.622;2024-01-11T08:04:50;20.02;;;9.05;;
78296;SDS011;67555;47.660;19.622;2024-01-11T08:07:16;14.73;;;8.43;;
78296;SDS011;67555;47.660;19.622;2024-01-11T08:09:42;14.98;;;8.75;;
78296;SDS011;67555;47.660;19.622;2024-01-11T08:12:10;26.08;;;11.80;;
78296;SDS011;67555;47.660;19.622;2024-01-11T08:14:36;16.90;;;9.32;;
78296;SDS011;67555;47.660;19.622;2024-01-11T08:17:02;16.70;;;9.38;;
78296;SDS011;67555;47.660;19.622;2024-01-11T08:19:30;15.70;;;9.20;;
78296;SDS011;67555;47.660;19.622;2024-01-11T08:21:57;28.10;;;12.27;;
78296;SDS011;67555;47.660;19.622;2024-01-11T08:24:23;26.33;;;13.57;;
78296;SDS011;67555;47.660;19.622;2024-01-11T08:26:51;34.40;;;12.57;;
78296;SDS011;67555;47.660;19.622;2024-01-11T08:29:17;23.05;;;13.35;;
78296;SDS011;67555;47.660;19.622;2024-01-11T08:31:47;23.10;;;11.02;;
78296;SDS011;67555;47.660;19.622;2024-01-11T08:34:13;19.60;;;12.20;;
78296;SDS011;67555;47.660;19.622;2024-01-11T08:36:39;23.98;;;12.35;;
78296;SDS011;67555;47.660;19.622;2024-01-11T08:39:05;28.02;;;11.77;;
78296;SDS011;67555;47.660;19.622;2024-01-11T08:41:31;28.08;;;13.25;;
78296;SDS011;67555;47.660;19.622;2024-01-11T08:43:58;26.30;;;13.38;;
78296;SDS011;67555;47.660;19.622;2024-01-11T08:46:28;24.08;;;11.80;;
78296;SDS011;67555;47.660;19.622;2024-01-11T08:48:55;26.83;;;13.02;;
78296;SDS011;67555;47.660;19.622;2024-01-11T08:51:22;23.30;;;11.98;;
78296;SDS011;67555;47.660;19.622;2024-01-11T08:53:48;23.67;;;12.48;;
78296;SDS011;67555;47.660;19.622;2024-01-11T08:56:14;30.27;;;10.68;;
78296;SDS011;67555;47.660;19.622;2024-01-11T08:58:41;24.40;;;11.88;;
78296;SDS011;67555;47.660;19.622;2024-01-11T09:01:07;36.60;;;18.42;;
78296;SDS011;67555;47.660;19.622;2024-01-11T09:03:33;44.13;;;16.73;;
78296;SDS011;67555;47.660;19.622;2024-01-11T09:06:00;57.25;;;19.98;;
78296;SDS011;67555;47.660;19.622;2024-01-11T09:08:27;22.08;;;11.05;;
78296;SDS011;67555;47.660;19.622;2024-01-11T09:10:53;31.30;;;11.75;;
78296;SDS011;67555;47.660;19.622;2024-01-11T09:13:20;17.45;;;10.02;;
78296;SDS011;67555;47.660;19.622;2024-01-11T09:15:46;24.13;;;11.65;;
78296;SDS011;67555;47.660;19.622;2024-01-11T09:18:11;14.88;;;9.27;;
78296;SDS011;67555;47.660;19.622;2024-01-11T09:20:37;17.58;;;9.43;;
78296;SDS011;67555;47.660;19.622;2024-01-11T09:23:03;22.38;;;9.35;;
78296;SDS011;67555;47.660;19.622;2024-01-11T09:25:29;25.02;;;12.02;;
78296;SDS011;67555;47.660;19.622;2024-01-11T09:27:55;24.00;;;9.20;;
78296;SDS011;67555;47.660;19.622;2024-01-11T09:30:21;22.23;;;8.55;;
78296;SDS011;67555;47.660;19.622;2024-01-11T09:32:47;7.55;;;4.15;;
78296;SDS011;67555;47.660;19.622;2024-01-11T09:35:13;16.75;;;6.97;;
78296;SDS011;67555;47.660;19.622;2024-01-11T09:37:39;11.90;;;7.70;;
78296;SDS011;67555;47.660;19.622;2024-01-11T09:40:05;12.30;;;7.50;;
78296;SDS011;67555;47.660;19.622;2024-01-11T09:42:35;26.40;;;10.35;;
78296;SDS011;67555;47.660;19.622;2024-01-11T09:45:02;14.73;;;7.97;;
78296;SDS011;67555;47.660;19.622;2024-01-11T09:47:32;21.75;;;9.38;;
78296;SDS011;67555;47.660;19.622;2024-01-11T09:50:00;21.73;;;9.32;;
78296;SDS011;67555;47.660;19.622;2024-01-11T09:52:28;15.98;;;7.70;;
78296;SDS011;67555;47.660;19.622;2024-01-11T09:54:56;25.83;;;10.40;;
78296;SDS011;67555;47.660;19.622;2024-01-11T09:57:29;19.92;;;9.73;;
78296;SDS011;67555;47.660;19.622;2024-01-11T09:59:56;26.73;;;12.07;;
78296;SDS011;67555;47.660;19.622;2024-01-11T10:02:23;22.60;;;11.35;;
78296;SDS011;67555;47.660;19.622;2024-01-11T10:04:51;25.17;;;10.88;;
78296;SDS011;67555;47.660;19.622;2024-01-11T10:07:22;26.23;;;9.63;;
78296;SDS011;67555;47.660;19.622;2024-01-11T10:09:50;17.33;;;8.48;;
78296;SDS011;67555;47.660;19.622;2024-01-11T10:12:19;15.40;;;7.85;;
78296;SDS011;67555;47.660;19.622;2024-01-11T10:14:48;20.50;;;10.57;;
78296;SDS011;67555;47.660;19.622;2024-01-11T10:17:15;17.90;;;10.57;;
78296;SDS011;67555;47.660;19.622;2024-01-11T10:19:40;20.15;;;10.20;;
78296;SDS011;67555;47.660;19.622;2024-01-11T10:22:07;13.80;;;8.93;;
78296;SDS011;67555;47.660;19.622;2024-01-11T10:24:37;19.67;;;9.98;;
78296;SDS011;67555;47.660;19.622;2024-01-11T10:27:04;19.50;;;12.10;;
78296;SDS011;67555;47.660;19.622;2024-01-11T10:29:31;24.35;;;13.02;;
78296;SDS011;67555;47.660;19.622;2024-01-11T10:31:58;18.45;;;9.85;;
78296;SDS011;67555;47.660;19.622;2024-01-11T10:34:23;23.27;;;10.40;;
78296;SDS011;67555;47.660;19.622;2024-01-11T10:36:50;17.85;;;8.73;;
78296;SDS011;67555;47.660;19.622;2024-01-11T10:39:16;23.10;;;10.13;;
78296;SDS011;67555;47.660;19.622;2024-01-11T10:41:45;20.85;;;9.35;;
78296;SDS011;67555;47.660;19.622;2024-01-11T10:44:18;13.43;;;6.03;;
78296;SDS011;67555;47.660;19.622;2024-01-11T10:46:50;2.35;;;2.08;;
78296;SDS011;67555;47.660;19.622;2024-01-11T10:49:20;12.75;;;7.53;;
78296;SDS011;67555;47.660;19.622;2024-01-11T10:51:56;12.77;;;6.55;;
78296;SDS011;67555;47.660;19.622;2024-01-11T10:54:25;10.40;;;4.55;;
78296;SDS011;67555;47.660;19.622;2024-01-11T10:56:52;18.15;;;7.60;;
78296;SDS011;67555;47.660;19.622;2024-01-11T10:59:20;17.98;;;9.07;;
78296;SDS011;67555;47.660;19.622;2024-01-11T11:01:54;13.98;;;7.47;;
78296;SDS011;67555;47.660;19.622;2024-01-11T11:04:22;4.30;;;3.63;;
78296;SDS011;67555;47.660;19.622;2024-01-11T11:06:50;20.02;;;8.80;;
78296;SDS011;67555;47.660;19.622;2024-01-11T11:09:20;14.48;;;7.63;;
78296;SDS011;67555;47.660;19.622;2024-01-11T11:11:47;17.17;;;9.82;;
78296;SDS011;67555;47.660;19.622;2024-01-11T11:14:14;11.60;;;6.35;;
78296;SDS011;67555;47.660;19.622;2024-01-11T11:16:41;9.45;;;5.03;;
78296;SDS011;67555;47.660;19.622;2024-01-11T11:19:07;10.45;;;7.30;;
78296;SDS011;67555;47.660;19.622;2024-01-11T11:21:41;12.80;;;6.32;;
78296;SDS011;67555;47.660;19.622;2024-01-11T11:24:08;8.43;;;5.60;;
78296;SDS011;67555;47.660;19.622;2024-01-11T11:26:36;7.20;;;4.93;;
78296;SDS011;67555;47.660;19.622;2024-01-11T11:29:05;8.93;;;5.68;;
78296;SDS011;67555;47.660;19.622;2024-01-11T11:31:36;8.80;;;4.47;;
78296;SDS011;67555;47.660;19.622;2024-01-11T11:34:04;9.00;;;5.18;;
78296;SDS011;67555;47.660;19.622;2024-01-11T11:36:30;10.10;;;5.57;;
78296;SDS011;67555;47.660;19.622;2024-01-11T11:38:59;11.32;;;6.22;;
78296;SDS011;67555;47.660;19.622;2024-01-11T11:41:32;11.45;;;5.88;;
78296;SDS011;67555;47.660;19.622;2024-01-11T11:44:01;16.10;;;8.80;;
78296;SDS011;67555;47.660;19.622;2024-01-11T11:46:28;9.90;;;5.80;;
78296;SDS011;67555;47.660;19.622;2024-01-11T11:48:56;5.50;;;2.63;;
78296;SDS011;67555;47.660;19.622;2024-01-11T11:51:22;6.10;;;3.45;;
78296;SDS011;67555;47.660;19.622;2024-01-11T11:53:49;14.77;;;7.18;;
78296;SDS011;67555;47.660;19.622;2024-01-11T11:56:16;13.95;;;6.38;;
78296;SDS011;67555;47.660;19.622;2024-01-11T11:58:44;8.30;;;4.38;;
78296;SDS011;67555;47.660;19.622;2024-01-11T12:01:11;8.65;;;4.80;;
78296;SDS011;67555;47.660;19.622;2024-01-11T12:03:42;9.02;;;4.35;;
78296;SDS011;67555;47.660;19.622;2024-01-11T12:06:19;10.02;;;5.13;;
78296;SDS011;67555;47.660;19.622;2024-01-11T12:08:48;6.82;;;4.35;;
78296;SDS011;67555;47.660;19.622;2024-01-11T12:11:20;5.28;;;2.95;;
78296;SDS011;67555;47.660;19.622;2024-01-11T12:13:47;12.43;;;5.38;;
78296;SDS011;67555;47.660;19.622;2024-01-11T12:16:14;8.02;;;4.03;;
78296;SDS011;67555;47.660;19.622;2024-01-11T12:18:40;12.57;;;6.00;;
78296;SDS011;67555;47.660;19.622;2024-01-11T12:21:06;7.90;;;4.30;;
78296;SDS011;67555;47.660;19.622;2024-01-11T12:23:36;10.07;;;5.03;;
78296;SDS011;67555;47.660;19.622;2024-01-11T12:26:04;7.40;;;5.05;;
78296;SDS011;67555;47.660;19.622;2024-01-11T12:28:36;6.10;;;3.53;;
78296;SDS011;67555;47.660;19.622;2024-01-11T12:31:03;12.02;;;6.28;;
78296;SDS011;67555;47.660;19.622;2024-01-11T12:33:28;22.48;;;11.13;;
78296;SDS011;67555;47.660;19.622;2024-01-11T12:35:54;20.80;;;8.40;;
78296;SDS011;67555;47.660;19.622;2024-01-11T12:38:20;28.17;;;11.63;;
78296;SDS011;67555;47.660;19.622;2024-01-11T12:40:47;11.48;;;6.47;;
78296;SDS011;67555;47.660;19.622;2024-01-11T12:43:15;4.60;;;3.58;;
78296;SDS011;67555;47.660;19.622;2024-01-11T12:45:41;14.35;;;8.25;;
78296;SDS011;67555;47.660;19.622;2024-01-11T12:48:07;19.10;;;9.50;;
78296;SDS011;67555;47.660;19.622;2024-01-11T12:50:34;14.65;;;7.05;;
78296;SDS011;67555;47.660;19.622;2024-01-11T12:53:04;15.07;;;7.70;;
78296;SDS011;67555;47.660;19.622;2024-01-11T12:55:44;18.52;;;8.27;;
78296;SDS011;67555;47.660;19.622;2024-01-11T12:58:11;14.55;;;8.75;;
78296;SDS011;67555;47.660;19.622;2024-01-11T13:00:37;21.80;;;10.07;;
78296;SDS011;67555;47.660;19.622;2024-01-11T13:03:05;12.73;;;6.97;;
78296;SDS011;67555;47.660;19.622;2024-01-11T13:05:31;15.57;;;8.35;;
78296;SDS011;67555;47.660;19.622;2024-01-11T13:08:09;11.00;;;7.22;;
78296;SDS011;67555;47.660;19.622;2024-01-11T13:10:36;20.20;;;11.13;;
78296;SDS011;67555;47.660;19.622;2024-01-11T13:13:02;25.33;;;11.00;;
78296;SDS011;67555;47.660;19.622;2024-01-11T13:15:28;21.95;;;12.13;;
78296;SDS011;67555;47.660;19.622;2024-01-11T13:17:55;9.93;;;6.05;;
78296;SDS011;67555;47.660;19.622;2024-01-11T13:20:22;5.57;;;3.42;;
78296;SDS011;67555;47.660;19.622;2024-01-11T13:22:48;24.50;;;10.40;;
78296;SDS011;67555;47.660;19.622;2024-01-11T13:25:15;18.48;;;8.23;;
78296;SDS011;67555;47.660;19.622;2024-01-11T13:27:42;19.00;;;8.30;;
78296;SDS011;67555;47.660;19.622;2024-01-11T13:30:07;11.65;;;6.82;;
78296;SDS011;67555;47.660;19.622;2024-01-11T13:32:34;16.27;;;7.18;;
78296;SDS011;67555;47.660;19.622;2024-01-11T13:35:00;16.10;;;8.40;;
78296;SDS011;67555;47.660;19.622;2024-01-11T13:37:26;17.77;;;8.60;;
78296;SDS011;67555;47.660;19.622;2024-01-11T13:39:52;12.43;;;6.65;;
78296;SDS011;67555;47.660;19.622;2024-01-11T13:42:19;9.60;;;5.30;;
78296;SDS011;67555;47.660;19.622;2024-01-11T13:44:44;6.18;;;4.00;;
78296;SDS011;67555;47.660;19.622;2024-01-11T13:47:11;8.52;;;6.13;;
78296;SDS011;67555;47.660;19.622;2024-01-11T13:49:36;22.27;;;10.25;;
78296;SDS011;67555;47.660;19.622;2024-01-11T13:52:02;16.30;;;8.82;;
78296;SDS011;67555;47.660;19.622;2024-01-11T13:54:29;22.23;;;11.00;;
78296;SDS011;67555;47.660;19.622;2024-01-11T13:56:55;13.95;;;7.95;;
78296;SDS011;67555;47.660;19.622;2024-01-11T13:59:21;16.30;;;8.07;;
78296;SDS011;67555;47.660;19.622;2024-01-11T14:01:46;18.70;;;8.13;;
78296;SDS011;67555;47.660;19.622;2024-01-11T14:04:12;13.63;;;6.03;;
78296;SDS011;67555;47.660;19.622;2024-01-11T14:06:38;10.93;;;5.55;;
78296;SDS011;67555;47.660;19.622;2024-01-11T14:09:05;19.60;;;10.85;;
78296;SDS011;67555;47.660;19.622;2024-01-11T14:11:34;22.00;;;9.25;;
78296;SDS011;67555;47.660;19.622;2024-01-11T14:14:00;14.50;;;6.80;;
78296;SDS011;67555;47.660;19.622;2024-01-11T14:16:26;15.10;;;7.00;;
78296;SDS011;67555;47.660;19.622;2024-01-11T14:18:52;14.40;;;7.28;;
78296;SDS011;67555;47.660;19.622;2024-01-11T14:21:19;11.23;;;5.97;;
78296;SDS011;67555;47.660;19.622;2024-01-11T14:23:45;20.27;;;7.45;;